createdAt,value
2023-03-26T00:00:32.457Z,13.30
2023-03-26T00:10:46.456Z,16.10
2023-03-26T00:20:59.506Z,17.70
2023-03-26T00:31:13.529Z,15.20
2023-03-26T00:41:32.484Z,13.70
2023-03-26T00:51:46.465Z,12.90
2023-03-26T01:02:02.524Z,13.40
2023-03-26T01:12:19.523Z,12.40
2023-03-26T01:22:34.502Z,18.90
2023-03-26T01:32:54.556Z,17.00
2023-03-26T01:43:13.507Z,20.30
2023-03-26T01:53:26.523Z,17.00
2023-03-26T02:03:43.605Z,20.90
2023-03-26T02:13:57.519Z,16.60
2023-03-26T02:24:10.550Z,18.30
2023-03-26T02:34:30.579Z,18.60
2023-03-26T02:44:43.561Z,12.40
2023-03-26T02:54:56.520Z,10.40
2023-03-26T03:05:09.574Z,20.70
2023-03-26T03:15:22.552Z,11.00
2023-03-26T03:25:35.583Z,13.10
2023-03-26T03:35:49.694Z,14.20
2023-03-26T03:46:02.654Z,15.20
2023-03-26T03:56:18.593Z,18.00
2023-03-26T04:06:32.596Z,10.40
2023-03-26T04:16:45.630Z,13.80
2023-03-26T04:26:58.613Z,21.90
2023-03-26T04:37:19.645Z,20.40
2023-03-26T04:47:32.728Z,26.30
2023-03-26T04:57:47.638Z,24.20
2023-03-26T05:08:00.685Z,22.90
2023-03-26T05:18:13.632Z,14.10
2023-03-26T05:28:28.672Z,15.80
2023-03-26T05:38:49.823Z,13.40
2023-03-26T05:49:02.692Z,10.90
2023-03-26T05:59:15.700Z,11.90
2023-03-26T06:09:29.800Z,13.30
2023-03-26T06:19:42.718Z,10.60
2023-03-26T06:29:55.664Z,8.90
2023-03-26T06:40:08.739Z,10.60
2023-03-26T06:50:21.709Z,10.80
2023-03-26T07:00:34.728Z,18.60
2023-03-26T07:10:47.713Z,13.70
2023-03-26T07:21:00.752Z,12.80
2023-03-26T07:31:50.737Z,10.30
2023-03-26T07:42:09.770Z,15.40
2023-03-26T07:52:22.759Z,10.60
2023-03-26T08:02:35.797Z,13.20
2023-03-26T08:12:57.733Z,11.20
2023-03-26T08:23:19.812Z,14.60
2023-03-26T08:33:37.809Z,12.60
2023-03-26T08:44:27.820Z,13.10
2023-03-26T08:55:08.784Z,12.80
2023-03-26T09:05:33.841Z,10.50
2023-03-26T09:16:41.852Z,10.60
2023-03-26T09:27:30.912Z,11.00
2023-03-26T09:38:08.821Z,10.20
2023-03-26T09:48:42.864Z,13.20
2023-03-26T10:09:41.848Z,10.10
2023-03-26T10:20:03.892Z,10.10
2023-03-26T10:30:45.895Z,10.50
2023-03-26T10:41:19.890Z,15.00
2023-03-26T10:51:49.869Z,12.60
2023-03-26T11:02:08.911Z,10.10
2023-03-26T11:12:36.896Z,10.10
2023-03-26T11:23:27.907Z,11.70
2023-03-26T11:33:50.895Z,12.50
2023-03-26T11:44:11.938Z,7.40
2023-03-26T11:54:25.904Z,7.30
2023-03-26T12:05:02.999Z,6.20
2023-03-26T12:15:22.945Z,10.50
2023-03-26T12:25:37.959Z,8.30
2023-03-26T12:35:58.024Z,8.10
2023-03-26T12:47:55.194Z,9.10
2023-03-26T12:57:12.478Z,17.90
2023-03-26T13:07:42.001Z,9.10
2023-03-26T13:18:34.984Z,10.50
2023-03-26T13:29:10.005Z,8.20
2023-03-26T13:39:53.030Z,10.60
2023-03-26T13:50:09.012Z,5.90
2023-03-26T14:00:30.051Z,9.70
2023-03-26T14:10:49.002Z,11.10
2023-03-26T14:21:32.063Z,8.40
2023-03-26T14:32:01.005Z,9.80
2023-03-26T14:42:21.090Z,9.50
2023-03-26T14:52:40.085Z,11.40
2023-03-26T15:02:56.126Z,8.50
2023-03-26T15:13:28.055Z,13.80
2023-03-26T15:24:06.092Z,7.50
2023-03-26T15:34:34.071Z,11.60
2023-03-26T15:45:19.137Z,12.70
2023-03-26T15:55:45.064Z,13.25
2023-03-26T16:06:19.121Z,10.90
2023-03-26T16:16:34.073Z,15.10
2023-03-26T16:26:59.145Z,15.60
2023-03-26T16:37:26.165Z,15.70
2023-03-26T16:47:51.228Z,13.30
2023-03-26T16:58:25.122Z,15.70
2023-03-26T17:08:46.188Z,13.60
2023-03-26T17:19:13.131Z,16.40
2023-03-26T17:29:48.171Z,16.10
2023-03-26T17:40:20.175Z,18.80
2023-03-26T17:51:06.156Z,18.90
2023-03-26T18:01:44.352Z,17.50
2023-03-26T18:12:25.186Z,16.80
2023-03-26T18:22:38.223Z,20.80
2023-03-26T18:33:10.230Z,25.70
2023-03-26T18:43:34.922Z,18.20
2023-03-26T18:53:59.202Z,24.60
2023-03-26T19:04:14.262Z,20.70
2023-03-26T19:14:36.220Z,19.80
2023-03-26T19:24:50.256Z,24.30
2023-03-26T19:35:07.262Z,19.40
2023-03-26T19:45:29.476Z,17.40
2023-03-26T19:55:43.245Z,21.50
2023-03-26T20:05:55.322Z,21.25
2023-03-26T20:16:19.279Z,20.90
2023-03-26T20:26:33.310Z,21.80
2023-03-26T20:36:46.347Z,23.20
2023-03-26T20:46:59.375Z,20.60
2023-03-26T20:57:12.366Z,22.40
2023-03-26T21:07:27.345Z,35.10
2023-03-26T21:17:40.368Z,40.50
2023-03-26T21:28:19.433Z,54.60
2023-03-26T21:38:40.321Z,43.00
2023-03-26T21:48:53.377Z,44.00
2023-03-26T21:59:13.346Z,42.70
2023-03-26T22:09:35.590Z,41.20
2023-03-26T22:19:49.333Z,37.40
2023-03-26T22:30:03.397Z,41.90
2023-03-26T22:40:23.406Z,65.00
2023-03-26T22:50:36.367Z,71.80
2023-03-26T23:00:49.443Z,52.90
2023-03-26T23:11:02.406Z,50.60
2023-03-26T23:21:21.418Z,48.70
2023-03-26T23:31:35.469Z,44.30
2023-03-26T23:41:48.453Z,31.10
2023-03-26T23:52:01.448Z,29.90
